Time;durP1;ratioP1;P1;durP2;ratioP2;P2;SDS_P1;SDS_P2;PMS_P1;PMS_P2;Temp;Humidity;BMP_temperature;BMP_pressure;BME280_temperature;BME280_humidity;BME280_pressure;Samples;Min_cycle;Max_cycle;Signal;HPM_P1;HPM_P2
2022/04/23 00:00:21;;;;;;;37.95;19.23;;;;;;;-144.47;58.43;53459.94;5051125;28;20105;-66
2022/04/23 00:02:47;;;;;;;38.80;18.80;;;;;;;-144.47;58.48;53457.94;5050198;28;20155;-66
2022/04/23 00:05:12;;;;;;;40.97;20.08;;;;;;;-144.47;58.27;53513.56;5050259;28;20029;-66
2022/04/23 00:07:38;;;;;;;43.75;19.42;;;;;;;-144.47;58.24;53465.91;5050560;28;20040;-67
2022/04/23 00:10:04;;;;;;;35.25;18.48;;;;;;;-144.47;58.60;53448.00;5050382;28;20029;-68
2022/04/23 00:12:29;;;;;;;40.55;18.92;;;;;;;-144.47;58.58;53465.91;5049525;28;20013;-65
2022/04/23 00:14:55;;;;;;;38.50;18.75;;;;;;;-144.47;58.23;53467.88;5050458;28;20470;-67
2022/04/23 00:17:20;;;;;;;42.00;20.08;;;;;;;-144.47;58.44;53491.72;5049880;28;20465;-65
2022/04/23 00:19:47;;;;;;;39.25;20.75;;;;;;;-144.47;58.03;53477.81;5050315;28;20025;-64
2022/04/23 00:22:13;;;;;;;35.53;18.20;;;;;;;-144.47;58.32;53463.91;5033334;28;20458;-67
2022/04/23 00:24:38;;;;;;;35.88;18.35;;;;;;;-144.47;58.21;53467.88;5049722;28;20013;-64
2022/04/23 00:27:03;;;;;;;36.72;18.73;;;;;;;-144.47;58.11;53481.78;5049304;28;20036;-67
2022/04/23 00:29:29;;;;;;;36.38;17.30;;;;;;;-144.47;58.14;53463.91;5050579;28;20422;-65
2022/04/23 00:31:55;;;;;;;39.40;19.20;;;;;;;-144.47;58.22;53493.72;5049253;28;20402;-67
2022/04/23 00:34:20;;;;;;;40.15;19.02;;;;;;;-144.47;58.13;53495.69;5049944;28;20357;-67
2022/04/23 00:36:46;;;;;;;37.25;19.13;;;;;;;-144.47;58.47;53446.03;5050142;28;20067;-66
2022/04/23 00:39:11;;;;;;;37.83;17.85;;;;;;;-144.47;58.56;53471.84;5051589;28;20037;-67
2022/04/23 00:41:51;;;;;;;38.90;19.13;;;;;;;-144.47;58.55;53463.91;5049112;28;20039;-67
2022/04/23 00:44:18;;;;;;;34.88;18.83;;;;;;;-144.47;58.83;53428.16;5048839;28;20525;-64
2022/04/23 00:46:44;;;;;;;40.92;18.60;;;;;;;-144.47;59.03;53525.50;5049604;28;20516;-68
2022/04/23 00:49:10;;;;;;;35.92;18.02;;;;;;;-144.47;59.18;53503.63;5049511;28;20032;-68
2022/04/23 00:51:40;;;;;;;36.78;18.42;;;;;;;-144.47;59.31;53495.69;5046611;28;20024;-67
2022/04/23 00:54:07;;;;;;;34.78;17.15;;;;;;;-144.47;59.41;53487.75;5049133;28;20557;-66
2022/04/23 00:56:34;;;;;;;37.13;17.63;;;;;;;-144.47;59.65;53489.72;5049371;28;20398;-68
2022/04/23 00:59:03;;;;;;;35.85;18.30;;;;;;;-144.47;59.88;53491.72;5049273;28;20029;-63
2022/04/23 01:01:28;;;;;;;30.50;18.07;;;;;;;-144.47;59.72;53525.50;5049247;28;20028;-64
2022/04/23 01:03:53;;;;;;;39.45;18.75;;;;;;;-144.47;59.65;53487.75;5049299;28;20032;-68
2022/04/23 01:06:20;;;;;;;36.08;17.25;;;;;;;-144.47;60.12;53467.88;5048223;28;20035;-67
2022/04/23 01:08:46;;;;;;;35.03;17.65;;;;;;;-144.47;59.89;53459.94;5048836;28;20025;-67
2022/04/23 01:11:12;;;;;;;34.28;18.17;;;;;;;-144.47;60.20;53497.69;5048680;28;20112;-67
2022/04/23 01:13:37;;;;;;;34.58;17.20;;;;;;;-144.47;60.20;53499.66;5048178;28;20075;-65
2022/04/23 01:16:07;;;;;;;36.28;17.27;;;;;;;-144.47;60.38;53499.66;5049217;28;20078;-68
2022/04/23 01:18:33;;;;;;;36.08;16.67;;;;;;;-144.47;60.60;53487.75;5048829;28;20025;-66
2022/04/23 01:21:00;;;;;;;39.83;15.45;;;;;;;-144.47;60.55;53489.72;5048570;28;20108;-66
2022/04/23 01:23:25;;;;;;;38.80;17.02;;;;;;;-144.47;60.60;53501.66;5049014;28;20036;-65
2022/04/23 01:25:53;;;;;;;31.08;16.38;;;;;;;-144.47;60.67;53481.78;5048760;28;20122;-66
2022/04/23 01:28:21;;;;;;;33.17;15.20;;;;;;;-144.47;60.87;53469.88;5048380;28;20501;-64
2022/04/23 01:30:51;;;;;;;33.78;15.85;;;;;;;-144.47;60.71;53493.72;5049073;28;20017;-69
2022/04/23 01:33:16;;;;;;;32.35;14.05;;;;;;;-144.47;60.69;53515.56;5048277;28;20528;-67
2022/04/23 01:35:43;;;;;;;29.73;14.18;;;;;;;-144.47;60.83;53491.72;5048664;28;20037;-68
2022/04/23 01:38:08;;;;;;;31.75;15.02;;;;;;;-144.47;61.00;53489.72;5048333;28;20033;-67
2022/04/23 01:40:33;;;;;;;30.83;14.18;;;;;;;-144.47;61.16;53507.59;5049815;28;20028;-68
2022/04/23 01:42:59;;;;;;;29.95;14.88;;;;;;;-144.47;61.32;53448.00;5048289;28;20024;-65
2022/04/23 01:45:24;;;;;;;27.48;13.77;;;;;;;-144.47;61.33;53503.63;5048513;28;20116;-67
2022/04/23 01:47:50;;;;;;;30.08;14.35;;;;;;;-144.47;61.09;53503.63;5047870;28;20116;-66
2022/04/23 01:50:15;;;;;;;30.50;13.70;;;;;;;-144.47;60.90;53485.75;5048792;28;20036;-67
2022/04/23 01:52:40;;;;;;;25.70;13.15;;;;;;;-144.47;61.07;53467.88;5047992;28;20440;-64
2022/04/23 01:55:06;;;;;;;30.48;15.27;;;;;;;-144.47;60.99;53487.75;5048411;28;20017;-67
2022/04/23 01:57:32;;;;;;;29.92;13.43;;;;;;;-144.47;60.67;53483.78;5048618;28;20094;-67
2022/04/23 01:59:57;;;;;;;26.02;13.43;;;;;;;-144.47;61.03;53491.72;5048371;28;20511;-65
2022/04/23 02:02:22;;;;;;;28.27;13.63;;;;;;;-144.47;60.84;53499.66;5032946;28;20638;-68
2022/04/23 02:04:48;;;;;;;33.97;15.10;;;;;;;-144.47;61.01;53455.97;5047686;28;20041;-65
2022/04/23 02:07:13;;;;;;;30.30;14.18;;;;;;;-144.47;61.12;53527.47;5034968;28;20029;-67
2022/04/23 02:09:38;;;;;;;27.35;13.85;;;;;;;-144.47;61.00;53507.59;5048806;28;20402;-65
2022/04/23 02:12:04;;;;;;;25.92;14.55;;;;;;;-144.47;61.09;53471.84;5032353;28;20078;-66
2022/04/23 02:14:29;;;;;;;26.55;13.93;;;;;;;-144.47;60.84;53489.72;5047488;28;20030;-65
2022/04/23 02:16:54;;;;;;;28.73;14.38;;;;;;;-144.47;61.04;53501.66;5048415;28;20454;-67
2022/04/23 02:19:20;;;;;;;24.35;13.52;;;;;;;-144.47;60.99;53491.72;5052724;28;20052;-66
2022/04/23 02:21:45;;;;;;;28.25;13.65;;;;;;;-144.47;61.24;53515.56;5052539;28;20009;-67
2022/04/23 02:24:10;;;;;;;27.48;13.85;;;;;;;-144.47;61.12;53501.66;5052438;28;20521;-67
2022/04/23 02:26:36;;;;;;;24.90;12.88;;;;;;;-144.47;60.95;53503.63;5051906;28;20597;-67
2022/04/23 02:29:01;;;;;;;26.58;13.35;;;;;;;-144.47;60.73;53479.81;5051670;28;20045;-69
2022/04/23 02:31:26;;;;;;;29.38;15.07;;;;;;;-144.47;60.81;53497.69;5051988;28;20056;-64
2022/04/23 02:33:52;;;;;;;26.08;14.20;;;;;;;-144.47;60.63;53503.63;5052227;28;20031;-66
2022/04/23 02:36:17;;;;;;;32.10;15.57;;;;;;;-144.47;60.79;53511.59;5051833;28;20036;-66
2022/04/23 02:38:42;;;;;;;27.85;13.90;;;;;;;-144.47;60.71;53471.84;5038443;28;20037;-67
2022/04/23 02:41:09;;;;;;;29.02;15.43;;;;;;;-144.47;60.67;53479.81;5051623;28;20040;-64
2022/04/23 02:43:41;;;;;;;32.33;15.25;;;;;;;-144.47;60.84;53503.63;5033078;28;20055;-67
2022/04/23 02:46:07;;;;;;;33.72;14.60;;;;;;;-144.47;60.68;53493.72;5051897;28;20105;-64
2022/04/23 02:48:33;;;;;;;24.02;12.43;;;;;;;-144.47;60.89;53483.78;5051848;28;20029;-66
2022/04/23 02:50:59;;;;;;;25.70;14.18;;;;;;;-144.47;60.90;53475.81;5051872;28;20037;-65
2022/04/23 02:53:24;;;;;;;26.23;13.55;;;;;;;-144.47;61.06;53485.75;5051815;28;20032;-66
2022/04/23 02:55:51;;;;;;;26.75;13.82;;;;;;;-144.47;61.23;53475.81;5051610;28;20071;-65
2022/04/23 02:58:17;;;;;;;24.65;12.88;;;;;;;-144.47;61.30;53479.81;5050905;28;20074;-65
2022/04/23 03:00:42;;;;;;;31.83;14.68;;;;;;;-144.47;61.71;53511.59;5051391;28;20024;-67
2022/04/23 03:03:09;;;;;;;22.35;13.07;;;;;;;-144.47;61.81;53475.81;5051198;28;20036;-67
2022/04/23 03:05:35;;;;;;;24.83;13.10;;;;;;;-144.47;61.86;53521.50;5050578;28;20051;-67
2022/04/23 03:08:00;;;;;;;24.75;13.23;;;;;;;-144.47;61.93;53477.81;5051220;28;20111;-68
2022/04/23 03:10:27;;;;;;;24.45;14.07;;;;;;;-144.47;61.95;53491.72;5050898;28;20060;-66
2022/04/23 03:12:56;;;;;;;29.75;15.02;;;;;;;-144.47;62.11;53459.94;5050911;28;20041;-66
2022/04/23 03:15:22;;;;;;;27.17;14.38;;;;;;;-144.47;62.33;53501.66;5051657;28;20487;-67
2022/04/23 03:17:47;;;;;;;26.25;14.02;;;;;;;-144.47;62.56;53515.56;5050758;28;20040;-66
2022/04/23 03:20:13;;;;;;;24.92;13.32;;;;;;;-144.47;62.69;53471.84;5051177;28;20025;-67
2022/04/23 03:22:39;;;;;;;27.05;14.80;;;;;;;-144.47;62.84;53465.91;5050817;28;20381;-66
2022/04/23 03:25:09;;;;;;;27.88;14.80;;;;;;;-144.47;62.83;53531.44;5050853;28;20067;-67
2022/04/23 03:27:34;;;;;;;30.65;15.50;;;;;;;-144.47;62.93;53479.81;5051087;28;20497;-66
2022/04/23 03:30:00;;;;;;;25.13;13.95;;;;;;;-144.47;63.31;53491.72;5050874;28;20037;-66
2022/04/23 03:32:27;;;;;;;32.63;15.55;;;;;;;-144.47;63.12;53493.72;5050279;28;20360;-68
2022/04/23 03:34:52;;;;;;;26.92;14.05;;;;;;;-144.47;63.18;53489.72;5044228;28;20044;-65
2022/04/23 03:37:18;;;;;;;25.05;13.43;;;;;;;-144.47;63.33;53493.72;5050592;28;20020;-69
2022/04/23 03:39:46;;;;;;;27.52;15.15;;;;;;;-144.47;63.39;53503.63;5052384;28;20017;-66
2022/04/23 03:42:11;;;;;;;26.80;15.50;;;;;;;-144.47;63.75;53507.59;5046943;28;20111;-67
2022/04/23 03:44:37;;;;;;;28.02;14.57;;;;;;;-144.47;63.58;53537.41;5050366;28;20053;-66
2022/04/23 03:47:03;;;;;;;28.83;14.65;;;;;;;-144.47;63.81;53539.41;5050212;28;20565;-69
2022/04/23 03:49:29;;;;;;;28.08;15.48;;;;;;;-144.47;63.78;53551.31;5050425;28;20552;-66
2022/04/23 03:51:55;;;;;;;25.65;13.95;;;;;;;-144.47;63.87;53513.56;5050313;28;20036;-67
2022/04/23 03:54:20;;;;;;;28.20;15.48;;;;;;;-144.47;63.99;53481.78;5050339;28;20033;-65
2022/04/23 03:56:46;;;;;;;29.52;15.07;;;;;;;-144.47;64.17;53505.63;5050725;28;20112;-67
2022/04/23 03:59:11;;;;;;;31.38;15.52;;;;;;;-144.47;64.35;53515.56;5050456;28;20025;-67
2022/04/23 04:01:37;;;;;;;31.20;15.13;;;;;;;-144.47;64.15;53503.63;5032335;28;20037;-64
2022/04/23 04:04:02;;;;;;;27.85;14.60;;;;;;;-144.47;64.28;53493.72;5049390;28;20036;-66
2022/04/23 04:06:27;;;;;;;28.88;15.55;;;;;;;-144.47;64.30;53485.75;5050474;28;20021;-68
2022/04/23 04:08:54;;;;;;;27.02;14.93;;;;;;;-144.47;64.27;53487.75;5048587;28;20044;-67
2022/04/23 04:11:19;;;;;;;25.73;14.70;;;;;;;-144.47;64.25;53573.16;5049913;28;20079;-66
2022/04/23 04:13:44;;;;;;;25.58;14.95;;;;;;;-144.47;64.35;53481.78;5049318;28;20024;-67
2022/04/23 04:16:10;;;;;;;29.40;16.33;;;;;;;-144.47;64.32;53477.81;5050117;28;20017;-66
2022/04/23 04:18:35;;;;;;;27.88;14.88;;;;;;;-144.47;64.23;53481.78;5050268;28;20021;-65
2022/04/23 04:21:01;;;;;;;32.08;16.48;;;;;;;-144.47;64.16;53533.44;5048362;28;20133;-66
2022/04/23 04:23:27;;;;;;;31.85;16.20;;;;;;;-144.47;64.31;53479.81;5049945;28;20029;-67
2022/04/23 04:25:52;;;;;;;31.77;16.27;;;;;;;-144.47;64.09;53533.44;5049552;28;20086;-68
2022/04/23 04:28:18;;;;;;;27.27;16.00;;;;;;;-144.47;63.92;53511.59;5049520;28;20459;-65
2022/04/23 04:33:27;;;;;;;27.90;15.82;;;;;;;-144.47;63.92;53479.81;5049380;28;20036;-67
2022/04/23 04:35:52;;;;;;;33.67;15.57;;;;;;;-144.47;63.74;53527.47;5049646;28;20036;-67
2022/04/23 04:38:18;;;;;;;27.58;16.40;;;;;;;-144.47;63.69;53485.75;5049293;28;20025;-67
2022/04/23 04:40:44;;;;;;;35.30;16.83;;;;;;;-144.47;63.68;53515.56;5050401;28;20124;-67
2022/04/23 04:43:09;;;;;;;30.40;16.38;;;;;;;-144.47;63.97;53521.50;5048814;28;20052;-64
2022/04/23 04:45:34;;;;;;;32.03;16.55;;;;;;;-144.47;64.14;53481.78;5049883;28;20029;-66
2022/04/23 04:47:59;;;;;;;28.27;16.38;;;;;;;-144.47;63.90;53545.34;5049092;28;20037;-66
2022/04/23 04:50:25;;;;;;;29.25;16.10;;;;;;;-144.47;63.99;53513.56;5049543;28;20060;-68
2022/04/23 04:52:50;;;;;;;30.73;17.50;;;;;;;-144.47;63.83;53521.50;5049128;28;20029;-65
2022/04/23 04:55:15;;;;;;;29.75;17.13;;;;;;;-144.47;63.78;53519.53;5049162;28;20406;-68
2022/04/23 04:57:42;;;;;;;33.50;18.10;;;;;;;-144.47;63.55;53507.59;5049756;28;20104;-66
2022/04/23 05:00:08;;;;;;;33.60;17.42;;;;;;;-144.47;63.68;53501.66;5049235;28;20056;-66
2022/04/23 05:02:33;;;;;;;29.30;17.52;;;;;;;-144.47;63.43;53475.81;5048904;28;20067;-68
2022/04/23 05:04:58;;;;;;;31.15;16.80;;;;;;;-144.47;62.96;53517.53;5040955;28;20025;-64
2022/04/23 05:07:24;;;;;;;31.13;16.45;;;;;;;-144.47;63.23;53491.72;5048997;28;20040;-68
2022/04/23 05:09:49;;;;;;;31.17;16.65;;;;;;;-144.47;62.91;53539.41;5049652;28;20021;-65
2022/04/23 05:12:14;;;;;;;33.42;17.45;;;;;;;-144.47;63.15;53515.56;5048029;28;20049;-67
2022/04/23 05:14:40;;;;;;;33.03;17.35;;;;;;;-144.47;62.87;53477.81;5048945;28;20033;-66
2022/04/23 05:17:05;;;;;;;30.52;17.40;;;;;;;-144.47;62.70;53507.59;5049402;28;20105;-65
2022/04/23 05:19:30;;;;;;;36.67;17.92;;;;;;;-144.47;62.50;53521.50;5048761;28;20040;-69
2022/04/23 05:21:56;;;;;;;31.00;18.27;;;;;;;-144.47;62.46;53489.72;5049215;28;20021;-66
2022/04/23 05:24:24;;;;;;;32.25;17.17;;;;;;;-144.47;62.05;53503.63;5048826;28;20559;-67
2022/04/23 05:26:49;;;;;;;31.83;18.38;;;;;;;-144.47;61.96;53531.44;5060464;22;20152;-66
2022/04/23 05:29:14;;;;;;;31.20;17.75;;;;;;;-144.47;62.10;53517.53;5046248;28;20037;-65
2022/04/23 05:31:40;;;;;;;28.80;16.98;;;;;;;-144.47;61.85;53495.69;5046241;28;20118;-68
2022/04/23 05:34:05;;;;;;;33.63;17.30;;;;;;;-144.47;61.97;53511.59;5046855;28;20056;-67
2022/04/23 05:36:31;;;;;;;36.63;16.15;;;;;;;-144.47;61.81;53481.78;5036467;28;20025;-67
2022/04/23 05:38:56;;;;;;;32.65;16.92;;;;;;;-144.47;61.26;53463.91;5044854;28;20044;-67
2022/04/23 05:41:23;;;;;;;33.88;17.42;;;;;;;-144.47;61.14;53501.66;5046449;28;20414;-69
2022/04/23 05:43:48;;;;;;;28.60;16.15;;;;;;;-144.47;60.74;53503.63;5042915;28;20046;-68
2022/04/23 05:46:16;;;;;;;28.13;16.55;;;;;;;-144.47;60.37;53473.84;5045237;28;20100;-68
2022/04/23 05:48:42;;;;;;;29.13;16.98;;;;;;;-144.47;60.09;53505.63;5043479;28;20451;-68
2022/04/23 05:51:07;;;;;;;29.67;16.65;;;;;;;-144.47;59.51;53515.56;5046060;28;20063;-68
2022/04/23 05:53:32;;;;;;;36.35;15.40;;;;;;;-144.47;59.72;53489.72;5042956;28;20028;-69
2022/04/23 05:55:58;;;;;;;28.38;15.57;;;;;;;-144.47;59.56;53469.88;5043013;28;20049;-66
2022/04/23 05:58:23;;;;;;;29.85;16.27;;;;;;;-144.47;58.98;53487.75;5042182;28;20099;-68
2022/04/23 06:00:50;;;;;;;28.58;15.18;;;;;;;-144.47;58.71;53493.72;5040631;28;20051;-67
2022/04/23 06:03:15;;;;;;;29.88;14.05;;;;;;;-144.47;58.11;53495.69;5042639;28;20526;-66
2022/04/23 06:05:41;;;;;;;32.33;15.73;;;;;;;-144.47;57.91;53493.72;5039752;28;20029;-69
2022/04/23 06:08:07;;;;;;;31.15;15.88;;;;;;;-144.47;57.70;53527.47;5045665;28;20134;-68
2022/04/23 06:10:32;;;;;;;28.95;15.57;;;;;;;-144.47;56.81;53473.84;5033139;28;20466;-66
2022/04/23 06:12:57;;;;;;;29.17;15.40;;;;;;;-144.47;56.19;53459.94;5016618;28;20090;-70
2022/04/23 06:15:22;;;;;;;27.85;14.95;;;;;;;-144.47;56.11;53493.72;5039036;28;20424;-68
2022/04/23 06:17:48;;;;;;;27.40;14.38;;;;;;;-144.47;55.26;53503.63;5041785;28;20136;-69
2022/04/23 06:20:17;;;;;;;34.13;13.63;;;;;;;-144.47;54.12;53471.84;5043907;28;20083;-68
2022/04/23 06:22:42;;;;;;;27.38;13.77;;;;;;;-144.47;54.73;53499.66;5041141;28;20120;-67
2022/04/23 06:25:08;;;;;;;23.80;13.95;;;;;;;-144.47;54.24;53444.03;5037587;28;20467;-67
2022/04/23 06:27:33;;;;;;;23.20;12.77;;;;;;;-144.47;53.22;53473.84;5038865;28;20466;-67
2022/04/23 06:29:58;;;;;;;22.80;12.48;;;;;;;-144.47;53.35;53497.69;5045950;28;20554;-68
2022/04/23 06:32:24;;;;;;;26.67;13.65;;;;;;;-144.47;52.84;53471.84;5043975;28;20088;-67
2022/04/23 06:34:49;;;;;;;21.90;12.07;;;;;;;-144.47;52.86;53501.66;5041618;28;20033;-67
2022/04/23 06:37:17;;;;;;;21.05;11.80;;;;;;;-144.47;52.09;53467.88;5041062;28;20029;-66
2022/04/23 06:39:43;;;;;;;24.67;12.30;;;;;;;-144.47;51.20;53446.03;5040271;28;20322;-68
2022/04/23 06:42:08;;;;;;;20.65;11.50;;;;;;;-144.47;51.02;53469.88;5045983;28;20561;-67
2022/04/23 06:44:33;;;;;;;23.58;12.02;;;;;;;-144.47;51.27;53459.94;5046373;28;20515;-69
2022/04/23 06:46:59;;;;;;;22.13;12.32;;;;;;;-144.47;51.37;53436.09;5045141;28;20088;-68
2022/04/23 06:49:27;;;;;;;30.88;12.80;;;;;;;-144.47;50.99;53463.91;5046302;28;20037;-70
2022/04/23 06:51:53;;;;;;;18.38;10.57;;;;;;;-144.47;50.64;53430.13;5044404;28;20071;-68
2022/04/23 06:54:18;;;;;;;23.85;10.88;;;;;;;-144.47;50.61;53465.91;5046483;28;20037;-67
2022/04/23 06:56:44;;;;;;;22.42;11.82;;;;;;;-144.47;49.91;53463.91;5041640;28;20033;-68
2022/04/23 06:59:09;;;;;;;18.38;10.23;;;;;;;-144.47;49.31;53465.91;5044080;28;20336;-69
2022/04/23 07:01:35;;;;;;;17.13;9.55;;;;;;;-144.47;48.42;53442.06;5040045;28;20089;-69
2022/04/23 07:04:00;;;;;;;22.77;10.27;;;;;;;-144.47;48.76;53428.16;5047279;28;20021;-67
2022/04/23 07:06:26;;;;;;;19.20;9.68;;;;;;;-144.47;48.29;53491.72;5046804;28;20065;-69
2022/04/23 07:08:51;;;;;;;15.80;9.10;;;;;;;-144.47;47.98;53450.00;5049432;28;20044;-69
2022/04/23 07:11:16;;;;;;;16.70;10.30;;;;;;;-144.47;48.05;53467.88;5046002;28;20064;-67
2022/04/23 07:13:43;;;;;;;17.55;10.10;;;;;;;-144.47;47.94;53448.00;5047793;28;20025;-68
2022/04/23 07:16:09;;;;;;;23.63;10.52;;;;;;;-144.47;47.26;53450.00;5045621;28;20024;-69
2022/04/23 07:18:39;;;;;;;17.55;9.45;;;;;;;-144.47;46.33;53461.91;5049829;28;20372;-66
2022/04/23 07:21:04;;;;;;;14.48;8.57;;;;;;;-144.47;45.86;53452.00;5030507;28;20033;-67
2022/04/23 07:26:14;;;;;;;17.20;8.77;;;;;;;-144.47;45.06;53420.22;5044140;28;20093;-68
2022/04/23 07:28:39;;;;;;;16.02;8.45;;;;;;;-144.47;45.01;53446.03;5044214;28;20116;-67
2022/04/23 07:31:05;;;;;;;12.23;7.25;;;;;;;-144.47;44.79;53436.09;5043714;28;20064;-67
2022/04/23 07:39:05;;;;;;;13.57;8.02;;;;;;;-144.47;44.56;53420.22;5026683;28;20063;-68
2022/04/23 07:41:31;;;;;;;15.15;8.70;;;;;;;-144.47;44.28;53424.19;5044440;28;20529;-68
2022/04/23 07:43:57;;;;;;;14.65;8.82;;;;;;;-144.47;44.76;53418.22;5027954;28;20040;-69
2022/04/23 07:46:23;;;;;;;16.55;8.68;;;;;;;-144.47;44.93;53442.06;5046856;28;20455;-67
2022/04/23 07:48:50;;;;;;;20.13;9.43;;;;;;;-144.47;44.93;53455.97;5040474;28;20025;-69
2022/04/23 07:51:16;;;;;;;14.32;8.35;;;;;;;-144.47;45.14;53446.03;5022203;28;20033;-67
2022/04/23 07:53:41;;;;;;;16.58;8.75;;;;;;;-144.47;45.10;53446.03;5042301;28;20041;-66
2022/04/23 07:56:06;;;;;;;14.75;9.18;;;;;;;-144.47;44.69;53414.25;5048829;28;20511;-70
2022/04/23 07:58:32;;;;;;;20.08;9.55;;;;;;;-144.47;44.94;53438.09;5044077;28;20388;-66
2022/04/23 08:00:57;;;;;;;15.93;8.80;;;;;;;-144.47;44.42;53450.00;5047382;28;20016;-68
2022/04/23 08:03:23;;;;;;;15.73;8.20;;;;;;;-144.47;44.23;53450.00;5034636;28;20034;-68
2022/04/23 08:05:48;;;;;;;13.13;7.85;;;;;;;-144.47;44.20;53436.09;5046715;28;20468;-67
2022/04/23 08:08:15;;;;;;;16.02;8.32;;;;;;;-144.47;44.04;53418.22;5038671;28;20099;-67
2022/04/23 08:10:40;;;;;;;11.27;7.38;;;;;;;-144.47;43.35;53416.22;5041689;28;20080;-69
2022/04/23 08:13:06;;;;;;;11.57;7.07;;;;;;;-144.47;42.38;53408.28;5039650;28;20553;-70
2022/04/23 08:15:31;;;;;;;20.35;6.93;;;;;;;-144.47;42.56;53368.56;5039926;28;20402;-69
2022/04/23 08:17:56;;;;;;;13.20;6.72;;;;;;;-144.47;41.96;53422.19;5044308;28;20028;-69
2022/04/23 08:20:22;;;;;;;16.00;6.30;;;;;;;-144.47;42.20;53408.28;5040116;28;20044;-68
2022/04/23 08:22:47;;;;;;;22.33;7.07;;;;;;;-144.47;42.22;53428.16;5047143;28;20508;-69
2022/04/23 08:25:13;;;;;;;13.15;6.72;;;;;;;-144.47;42.00;53414.25;5031220;28;20509;-67
2022/04/23 08:27:48;;;;;;;14.23;7.45;;;;;;;-144.47;42.03;53418.22;5047331;28;20526;-69
2022/04/23 08:32:57;;;;;;;14.18;7.03;;;;;;;-144.47;42.05;53396.38;5041245;28;20117;-66
2022/04/23 08:35:25;;;;;;;17.08;7.28;;;;;;;-144.47;41.92;53420.22;5047085;28;20116;-68
2022/04/23 08:37:51;;;;;;;15.82;7.78;;;;;;;-144.47;41.75;53428.16;5041055;28;20030;-68
2022/04/23 08:40:16;;;;;;;13.98;7.43;;;;;;;-144.47;41.98;53420.22;5046232;28;20470;-68
2022/04/23 08:42:41;;;;;;;13.38;7.10;;;;;;;-144.47;41.58;53392.41;5047567;28;20032;-69
2022/04/23 08:45:08;;;;;;;13.38;6.90;;;;;;;-144.47;41.43;53374.50;5045158;28;20048;-69
2022/04/23 08:47:36;;;;;;;14.60;6.60;;;;;;;-144.47;41.27;53396.38;5044507;28;20410;-67
2022/04/23 08:50:04;;;;;;;14.63;8.35;;;;;;;-144.47;41.76;53418.22;5022149;28;20035;-68
2022/04/23 08:52:34;;;;;;;12.67;7.57;;;;;;;-144.47;41.02;53426.16;5025891;28;20033;-69
2022/04/23 08:55:01;;;;;;;14.65;7.38;;;;;;;-144.47;41.32;53422.19;5022191;28;20017;-67
2022/04/23 08:57:27;;;;;;;15.60;7.60;;;;;;;-144.47;41.03;53396.38;5042701;28;20123;-67
2022/04/23 08:59:56;;;;;;;18.27;7.35;;;;;;;-144.47;41.30;53408.28;5043907;28;20128;-69
2022/04/23 09:02:23;;;;;;;15.55;8.50;;;;;;;-144.47;41.51;53404.31;5045251;28;20120;-67
2022/04/23 09:04:49;;;;;;;17.50;7.78;;;;;;;-144.47;41.30;53396.38;5040014;28;20083;-67
2022/04/23 09:07:19;;;;;;;10.60;6.95;;;;;;;-144.47;42.00;53406.31;5047091;28;20099;-66
2022/04/23 09:09:55;;;;;;;16.80;8.63;;;;;;;-144.47;41.63;53378.50;5043462;28;20092;-68
2022/04/23 09:12:25;;;;;;;13.85;7.65;;;;;;;-144.47;42.04;53386.44;5042570;28;20074;-66
2022/04/23 09:14:51;;;;;;;12.52;7.43;;;;;;;-144.47;42.40;53404.31;5042791;28;20505;-66
2022/04/23 09:25:45;;;;;;;13.88;7.75;;;;;;;-144.47;41.33;53420.22;5036835;28;20064;-69
2022/04/23 09:28:28;;;;;;;15.25;7.22;;;;;;;-144.47;41.28;53410.28;5042122;28;20419;-71
2022/04/23 09:30:54;;;;;;;20.00;8.30;;;;;;;-144.47;41.10;53420.22;5044451;28;20024;-69
2022/04/23 09:33:27;;;;;;;14.48;8.52;;;;;;;-144.47;41.65;53388.41;5042022;28;20547;-67
2022/04/23 09:35:53;;;;;;;16.42;8.00;;;;;;;-144.47;41.04;53394.38;5042578;28;20033;-68
2022/04/23 09:38:19;;;;;;;14.40;8.20;;;;;;;-144.47;41.35;53388.41;5039172;28;20395;-66
2022/04/23 09:40:54;;;;;;;17.10;8.15;;;;;;;-144.47;41.13;53428.16;5044150;28;20513;-68
2022/04/23 09:43:30;;;;;;;17.17;7.50;;;;;;;-144.47;40.98;53404.31;5040802;28;20211;-69
2022/04/23 09:46:06;;;;;;;16.63;7.80;;;;;;;-144.47;40.79;53386.44;5045853;28;20082;-67
2022/04/23 09:48:32;;;;;;;17.27;7.53;;;;;;;-144.47;40.79;53420.22;5044787;28;20089;-69
2022/04/23 09:50:58;;;;;;;17.48;7.45;;;;;;;-144.47;40.88;53416.22;5027363;28;20048;-68
2022/04/23 09:53:30;;;;;;;14.27;7.57;;;;;;;-144.47;40.17;53396.38;5044674;28;20382;-68
2022/04/23 09:55:59;;;;;;;10.57;6.35;;;;;;;-144.47;40.08;53368.56;5043502;28;20072;-69
2022/04/23 09:58:26;;;;;;;13.15;5.80;;;;;;;-144.47;39.66;53416.22;5046224;28;20029;-69
2022/04/23 10:00:52;;;;;;;13.93;6.35;;;;;;;-144.47;39.67;53390.41;5044640;28;20052;-68
2022/04/23 10:03:18;;;;;;;14.48;5.78;;;;;;;-144.47;39.16;53372.53;5048111;28;20036;-68
2022/04/23 10:05:47;;;;;;;9.75;5.13;;;;;;;-144.47;39.25;53390.41;5044210;28;20048;-70
2022/04/23 10:08:17;;;;;;;11.27;5.75;;;;;;;-144.47;38.50;53378.50;5044135;28;20469;-66
2022/04/23 10:10:56;;;;;;;14.60;4.82;;;;;;;-144.47;37.78;53368.56;5039626;28;20053;-70
2022/04/23 10:13:24;;;;;;;8.73;4.35;;;;;;;-144.47;38.04;53392.41;5043964;28;20069;-67
2022/04/23 10:15:53;;;;;;;9.02;4.22;;;;;;;-144.47;37.44;53340.75;5047092;28;20070;-68
2022/04/23 10:18:19;;;;;;;;;;;;;;;-144.47;37.16;53370.53;5027104;28;20537;-69
2022/04/23 10:20:55;;;;;;;9.80;4.65;;;;;;;-144.47;37.60;53400.34;5041415;28;19913;-69
2022/04/23 10:23:59;;;;;;;7.97;4.13;;;;;;;-144.47;37.32;53398.34;5041764;28;20057;-67
2022/04/23 10:26:38;;;;;;;11.80;3.97;;;;;;;-144.47;36.99;53374.50;5025488;28;105159;-67
2022/04/23 10:29:09;;;;;;;9.90;4.65;;;;;;;-144.47;36.88;53390.41;5024092;28;20057;-70
2022/04/23 10:31:35;;;;;;;9.88;4.43;;;;;;;-144.47;36.33;53352.66;5044071;28;20029;-68
2022/04/23 10:34:01;;;;;;;15.05;4.25;;;;;;;-144.47;36.47;53390.41;5031467;28;20036;-70
2022/04/23 10:36:27;;;;;;;8.18;3.90;;;;;;;-144.47;36.49;53364.59;5045809;28;20036;-69
2022/04/23 10:39:19;;;;;;;9.25;3.95;;;;;;;-144.47;36.47;53316.91;5046340;28;20067;-68
2022/04/23 10:41:44;;;;;;;8.25;4.60;;;;;;;-144.47;36.16;53336.78;5045102;28;20043;-67
2022/04/23 10:44:10;;;;;;;7.38;4.20;;;;;;;-144.47;36.28;53364.59;5047903;28;20037;-69
2022/04/23 10:46:42;;;;;;;11.48;4.82;;;;;;;-144.47;36.38;53364.59;5049461;28;20041;-67
2022/04/23 10:49:19;;;;;;;7.63;4.60;;;;;;;-144.47;36.31;53328.81;5051642;28;20103;-68
2022/04/23 10:51:49;;;;;;;10.18;4.43;;;;;;;-144.47;36.41;53305.00;5047071;28;20037;-69
2022/04/23 10:54:19;;;;;;;8.80;4.20;;;;;;;-144.47;36.70;53408.28;5049377;28;20044;-68
2022/04/23 10:56:48;;;;;;;16.17;7.43;;;;;;;-144.47;36.88;53362.59;5048053;28;20581;-66
2022/04/23 10:59:43;;;;;;;9.23;4.93;;;;;;;-144.47;36.44;53346.72;5044678;28;20037;-68
2022/04/23 11:02:13;;;;;;;8.25;4.00;;;;;;;-144.47;36.06;53384.44;5036796;28;20152;-69
2022/04/23 11:13:27;;;;;;;9.57;4.25;;;;;;;-144.47;35.83;53308.97;5044579;28;20028;-68
2022/04/23 11:16:10;;;;;;;9.20;3.83;;;;;;;-144.47;36.01;53364.59;5046590;28;20071;-69
2022/04/23 11:18:37;;;;;;;13.15;4.50;;;;;;;-144.47;35.62;53370.53;5047536;28;20064;-69
2022/04/23 11:21:06;;;;;;;10.20;4.10;;;;;;;-144.47;35.38;53378.50;5021883;28;20441;-68
2022/04/23 11:23:32;;;;;;;11.23;4.07;;;;;;;-144.47;35.58;53346.72;5047025;28;20041;-66
2022/04/23 11:25:58;;;;;;;12.00;4.38;;;;;;;-144.47;36.03;53338.75;5043286;28;20136;-69
2022/04/23 11:28:23;;;;;;;10.68;4.45;;;;;;;-144.47;35.66;53358.63;5081700;22;20116;-69
2022/04/23 11:30:51;;;;;;;11.48;4.70;;;;;;;-144.47;35.81;53306.97;5050677;28;20543;-68
2022/04/23 11:33:17;;;;;;;10.95;4.93;;;;;;;-144.47;35.99;53362.59;5050640;28;20032;-69